Time;durP1;ratioP1;P1;durP2;ratioP2;P2;SDS_P1;SDS_P2;PMS_P1;PMS_P2;Temp;Humidity;BMP_temperature;BMP_pressure;BME280_temperature;BME280_humidity;BME280_pressure;Samples;Min_cycle;Max_cycle;Signal;HPM_P1;HPM_P2
2023/05/27 00:01:12;;;;;;;;;8.67;7.00;;;;;20.24;61.95;100705.34;146619;661;47020;-68
2023/05/27 00:04:11;;;;;;;;;7.67;7.33;;;;;20.29;61.60;100701.00;146620;563;46012;-68
2023/05/27 00:07:31;;;;;;;;;6.75;6.75;;;;;20.33;60.25;100696.66;146621;601;46011;-67
2023/05/27 00:10:36;;;;;;;;;8.50;8.00;;;;;20.32;60.85;100694.91;146619;663;46016;-68
2023/05/27 00:13:38;;;;;;;;;;;;;;;;;;;;;
2023/05/27 00:19:49;;;;;;;;;5.67;5.67;;;;;20.25;60.60;100709.75;146622;572;46020;-67
2023/05/27 00:22:48;;;;;;;;;7.67;6.33;;;;;20.16;61.54;100712.28;146616;598;47012;-67
2023/05/27 00:25:47;;;;;;;;;9.00;5.75;;;;;19.98;62.17;100710.28;146621;577;46020;-67
2023/05/27 00:29:08;;;;;;;;;6.00;6.00;;;;;19.79;67.74;100698.66;146619;638;46018;-67
2023/05/27 00:32:03;;;;;;;;;10.00;7.33;;;;;19.68;69.63;100709.00;146624;564;46010;-67
2023/05/27 00:35:07;;;;;;;;;7.25;6.75;;;;;19.61;69.03;100705.37;146616;691;46039;-67
2023/05/27 00:38:05;;;;;;;;;8.00;6.50;;;;;19.58;70.09;100710.59;146620;564;46020;-68
2023/05/27 00:41:14;;;;;;;;;6.33;5.00;;;;;19.56;69.14;100706.19;146620;575;46012;-67
2023/05/27 00:44:22;;;;;;;;;8.00;5.67;;;;;19.58;68.73;100704.47;146623;628;46010;-68
2023/05/27 00:47:33;;;;;;;;;7.00;6.00;;;;;19.61;68.02;100704.50;146617;680;47014;-68
2023/05/27 00:50:32;;;;;;;;;6.33;5.33;;;;;19.59;69.13;100707.13;146622;635;46021;-67
2023/05/27 00:53:52;;;;;;;;;7.00;6.33;;;;;19.59;68.85;100707.13;146617;657;46914;-67
2023/05/27 00:56:48;;;;;;;;;8.50;6.00;;;;;19.60;70.02;100706.25;146618;610;46020;-66
2023/05/27 00:59:48;;;;;;;;;8.67;7.33;;;;;19.59;70.01;100708.84;146616;578;47012;-67
2023/05/27 01:02:58;;;;;;;;;6.67;6.00;;;;;19.57;69.34;100713.22;146620;585;46020;-69
2023/05/27 01:05:57;;;;;;;;;7.00;7.00;;;;;19.56;69.34;100714.06;146618;611;46017;-67
2023/05/27 01:09:32;;;;;;;;;5.33;5.00;;;;;16.91;65.96;100264.41;146623;608;46025;-67
2023/05/27 01:13:16;;;;;;;;;6.67;5.67;;;;;18.20;65.88;100486.91;146617;573;47014;-69
2023/05/27 01:16:43;;;;;;;;;6.67;6.00;;;;;16.78;64.61;100233.63;146620;638;46022;-68
2023/05/27 01:19:45;;;;;;;;;7.00;5.00;;;;;19.66;66.14;100723.00;146618;654;46016;-67
2023/05/27 01:22:46;;;;;;;;;7.00;5.00;;;;;19.71;66.04;100724.84;146621;653;46012;-69
2023/05/27 01:25:52;;;;;;;;;5.33;4.67;;;;;17.12;64.94;100266.53;146618;617;46012;-68
2023/05/27 01:29:02;;;;;;;;;9.00;7.00;;;;;19.76;64.89;100722.28;146621;595;46021;-68
2023/05/27 01:32:34;;;;;;;;;7.50;6.00;;;;;19.72;63.74;100721.37;146619;591;46014;-67
2023/05/27 01:36:08;;;;;;;;;7.50;6.00;;;;;19.59;62.66;100709.75;146620;607;46010;-67
2023/05/27 01:39:17;;;;;;;;;8.25;7.25;;;;;16.83;62.50;100250.31;146616;622;46016;-68
2023/05/27 01:42:27;;;;;;;;;4.00;4.00;;;;;19.47;63.76;100716.56;146622;592;46011;-68
2023/05/27 01:45:27;;;;;;;;;7.75;6.00;;;;;19.42;64.25;100719.13;146618;581;46922;-67
2023/05/27 01:48:22;;;;;;;;;8.00;6.00;;;;;19.37;63.79;100713.78;146619;591;46010;-69
2023/05/27 01:51:38;;;;;;;;;6.00;5.50;;;;;16.47;62.70;100203.34;146615;690;46016;-68
2023/05/27 01:54:36;;;;;;;;;6.00;5.67;;;;;19.31;64.27;100711.06;146621;569;46010;-69
2023/05/27 01:57:30;;;;;;;;;7.00;6.00;;;;;19.28;64.37;100710.12;146618;564;46017;-69
2023/05/27 02:00:40;;;;;;;;;5.50;5.00;;;;;19.27;64.02;100714.53;146621;577;46020;-67
2023/05/27 02:03:35;;;;;;;;;5.00;4.00;;;;;19.27;64.07;100714.53;146615;570;46016;-68
2023/05/27 02:06:33;;;;;;;;;6.25;4.50;;;;;19.27;63.31;100708.37;146621;682;46020;-67
2023/05/27 02:09:27;;;;;;;;;8.00;7.00;;;;;19.21;63.98;100718.81;146617;595;46016;-69
2023/05/27 02:12:30;;;;;;;;;5.25;5.00;;;;;19.11;63.71;100716.03;146620;635;46012;-68
2023/05/27 02:15:23;;;;;;;;;6.33;6.33;;;;;19.05;64.68;100721.19;146617;569;47014;-66
2023/05/27 02:18:25;;;;;;;;;6.33;6.00;;;;;18.97;63.83;100714.94;146621;612;46021;-67
2023/05/27 02:21:37;;;;;;;;;6.67;6.33;;;;;18.95;63.06;100716.62;146614;594;46016;-66
2023/05/27 02:24:48;;;;;;;;;6.33;6.00;;;;;18.95;63.91;100721.87;146623;618;46020;-68
2023/05/27 02:27:52;;;;;;;;;7.67;6.67;;;;;18.90;64.27;100721.78;146616;571;46017;-67
2023/05/27 02:31:08;;;;;;;;;7.00;6.00;;;;;17.19;63.66;100446.56;146621;562;46020;-68
2023/05/27 02:34:17;;;;;;;;;5.33;5.33;;;;;18.80;64.03;100729.50;146618;602;46013;-68
2023/05/27 02:37:15;;;;;;;;;7.75;6.75;;;;;18.76;64.20;100739.06;146620;643;46020;-69
2023/05/27 02:40:40;;;;;;;;;7.00;7.00;;;;;18.69;63.58;100738.03;146617;591;46016;-68
2023/05/27 02:44:00;;;;;;;;;5.75;5.00;;;;;15.97;63.11;100269.47;146621;608;46031;-67
2023/05/27 02:47:13;;;;;;;;;7.00;6.00;;;;;16.01;63.99;100259.94;146619;692;46016;-69
2023/05/27 02:50:24;;;;;;;;;6.00;6.00;;;;;18.67;64.44;100734.50;146617;625;46012;-69
2023/05/27 02:53:38;;;;;;;;;7.00;6.00;;;;;15.83;64.62;100263.06;146615;669;46915;-68
2023/05/27 02:56:35;;;;;;;;;5.67;5.67;;;;;18.49;64.78;100741.16;146623;602;46010;-67
2023/05/27 02:59:47;;;;;;;;;7.00;6.00;;;;;18.43;65.22;100737.53;146618;571;45915;-68
2023/05/27 03:03:11;;;;;;;;;7.00;6.33;;;;;18.39;64.93;100740.97;146624;634;46011;-69
2023/05/27 03:06:10;;;;;;;;;7.00;4.33;;;;;18.39;65.37;100734.84;146617;622;46016;-69
2023/05/27 03:09:20;;;;;;;;;5.00;4.33;;;;;18.42;64.90;100746.28;146623;595;46010;-67
2023/05/27 03:12:32;;;;;;;;;5.75;5.75;;;;;18.49;64.67;100743.78;146618;569;46014;-67
2023/05/27 03:15:35;;;;;;;;;8.67;5.33;;;;;18.53;65.55;100750.84;146621;583;47010;-67
2023/05/27 03:18:32;;;;;;;;;6.67;6.00;;;;;18.59;65.82;100748.34;146620;649;46035;-68
2023/05/27 03:21:37;;;;;;;;;8.00;8.00;;;;;18.65;65.35;100756.31;146615;650;46020;-67
2023/05/27 03:24:43;;;;;;;;;6.25;6.00;;;;;18.66;65.62;100759.00;146618;564;46015;-67
2023/05/27 03:27:47;;;;;;;;;8.00;7.00;;;;;18.65;65.70;100758.97;146621;661;46010;-69
2023/05/27 03:30:45;;;;;;;;;6.75;6.50;;;;;18.64;65.95;100755.44;146616;732;46016;-67
2023/05/27 03:33:54;;;;;;;;;5.67;5.67;;;;;18.65;66.06;100748.44;146622;690;46021;-68
2023/05/27 03:36:53;;;;;;;;;5.00;5.00;;;;;18.66;65.54;100750.22;146612;672;48917;-67
2023/05/27 03:39:51;;;;;;;;;7.50;7.50;;;;;18.71;66.07;100759.06;146621;564;46010;-67
2023/05/27 03:42:45;;;;;;;;;8.00;8.00;;;;;18.74;66.52;100743.41;146618;674;46918;-66
2023/05/27 03:46:02;;;;;;;;;;;;;;;;;;;;;
2023/05/27 03:49:21;;;;;;;;;9.50;8.00;;;;;18.84;65.42;100745.34;146615;570;46017;-68
2023/05/27 03:52:40;;;;;;;;;10.00;9.00;;;;;18.92;65.94;100746.38;146619;631;46010;-67
2023/05/27 03:55:45;;;;;;;;;7.33;7.33;;;;;18.93;66.25;100745.50;146620;587;46014;-68
2023/05/27 03:58:51;;;;;;;;;8.25;7.25;;;;;18.99;67.22;100755.22;146623;640;46010;-67
2023/05/27 04:01:50;;;;;;;;;6.67;5.33;;;;;19.06;66.91;100758.84;146617;565;46016;-68
2023/05/27 04:04:58;;;;;;;;;;;;;;;;;;;;;
2023/05/27 04:08:08;;;;;;;;;5.50;5.50;;;;;16.39;64.79;100264.28;146619;623;46012;-67
2023/05/27 04:11:20;;;;;;;;;6.25;6.25;;;;;19.37;64.53;100757.59;146621;566;47012;-67
2023/05/27 04:14:42;;;;;;;;;;;;;;;;;;;;;
2023/05/27 04:17:46;;;;;;;;;9.00;8.50;;;;;19.66;65.39;100758.09;146621;675;46021;-68
2023/05/27 04:20:50;;;;;;;;;7.00;7.00;;;;;19.82;64.59;100754.81;146618;631;46014;-67
2023/05/27 04:23:43;;;;;;;;;7.25;7.25;;;;;19.98;65.07;100761.19;146620;594;46010;-67
2023/05/27 04:26:38;;;;;;;;;8.00;7.00;;;;;20.06;63.76;100753.38;146615;669;46017;-69
2023/05/27 04:29:45;;;;;;;;;8.75;7.25;;;;;20.10;63.23;100759.59;146623;678;46010;-67
2023/05/27 04:33:03;;;;;;;;;10.00;8.67;;;;;20.07;62.99;100761.31;146618;628;46017;-67
2023/05/27 04:35:59;;;;;;;;;8.50;7.25;;;;;20.11;64.00;100753.44;146623;681;46010;-68
2023/05/27 04:38:54;;;;;;;;;9.50;8.25;;;;;20.15;63.92;100753.50;146612;602;47916;-68
2023/05/27 04:41:49;;;;;;;;;6.00;6.00;;;;;20.19;63.18;100757.06;146622;609;47010;-68
2023/05/27 04:44:44;;;;;;;;;9.00;8.00;;;;;20.21;62.70;100760.59;146619;565;46012;-67
2023/05/27 04:47:54;;;;;;;;;;;;;;;;;;;;;
2023/05/27 04:51:01;;;;;;;;;9.00;7.33;;;;;20.30;62.55;100756.31;146619;648;46016;-69
2023/05/27 04:54:11;;;;;;;;;7.67;7.00;;;;;20.36;62.08;100763.41;146624;559;46010;-68
2023/05/27 04:57:09;;;;;;;;;9.25;9.25;;;;;20.40;62.08;100766.97;146615;579;46016;-67
2023/05/27 05:00:20;;;;;;;;;9.00;7.67;;;;;20.47;61.24;100764.44;146622;659;46010;-68
2023/05/27 05:03:21;;;;;;;;;10.33;9.00;;;;;20.55;61.39;100768.94;146618;606;47012;-68
2023/05/27 05:06:58;;;;;;;;;8.00;7.00;;;;;20.62;61.35;100776.91;146621;664;47012;-68
2023/05/27 05:09:51;;;;;;;;;6.33;6.00;;;;;20.67;61.06;100772.56;146618;564;46017;-69
2023/05/27 05:12:53;;;;;;;;;9.00;8.00;;;;;20.71;61.17;100774.38;146621;609;46020;-68
2023/05/27 05:15:55;;;;;;;;;7.67;7.67;;;;;20.80;61.43;100786.75;146619;564;46016;-69
2023/05/27 05:18:57;;;;;;;;;10.67;9.33;;;;;20.85;61.25;100778.91;146623;578;46012;-68
2023/05/27 05:21:55;;;;;;;;;5.33;5.33;;;;;20.90;61.43;100778.09;146619;577;46035;-68
2023/05/27 05:24:52;;;;;;;;;9.00;9.00;;;;;20.99;61.42;100780.81;146618;615;47011;-68
2023/05/27 05:27:54;;;;;;;;;8.25;8.25;;;;;21.07;61.43;100780.88;146617;632;46012;-67
2023/05/27 05:31:23;;;;;;;;;;;;;;;;;;;;;
2023/05/27 05:34:28;;;;;;;;;7.00;7.00;;;;;21.25;61.62;100772.25;146618;622;46016;-68
2023/05/27 05:37:43;;;;;;;;;9.75;8.25;;;;;18.70;60.16;100327.47;146620;569;47020;-68
2023/05/27 05:40:56;;;;;;;;;9.67;9.67;;;;;21.40;60.01;100777.69;146617;592;46013;-67
2023/05/27 05:44:00;;;;;;;;;9.00;7.50;;;;;21.54;60.71;100783.06;146620;648;46010;-68
2023/05/27 05:47:01;;;;;;;;;11.75;11.75;;;;;21.85;59.44;100780.63;146618;564;47012;-67
2023/05/27 05:50:06;;;;;;;;;10.50;9.00;;;;;22.07;57.50;100787.78;146617;569;46020;-67
2023/05/27 05:53:15;;;;;;;;;10.75;9.25;;;;;22.14;57.14;100778.12;146620;565;46016;-67
2023/05/27 05:56:33;;;;;;;;;8.75;8.50;;;;;19.56;57.09;100353.75;146619;652;46020;-68
2023/05/27 05:59:31;;;;;;;;;29.00;27.50;;;;;22.04;57.82;100778.97;146617;593;45016;-68
2023/05/27 06:02:34;;;;;;;;;11.00;11.00;;;;;22.00;58.63;100777.22;146615;645;46020;-69
2023/05/27 06:05:29;;;;;;;;;10.00;9.00;;;;;21.98;58.60;100776.31;146619;710;46012;-69
2023/05/27 06:08:27;;;;;;;;;12.00;10.50;;;;;21.97;58.54;100775.44;146621;593;46013;-69
2023/05/27 06:11:21;;;;;;;;;10.00;10.00;;;;;21.96;59.04;100783.31;146614;569;46016;-68
2023/05/27 06:14:19;;;;;;;;;10.00;8.75;;;;;21.96;58.21;100775.41;146619;583;46030;-69
2023/05/27 06:17:20;;;;;;;;;12.33;10.33;;;;;21.99;57.63;100781.56;146617;598;46016;-68
2023/05/27 06:20:29;;;;;;;;;10.00;10.00;;;;;22.03;57.93;100779.87;146619;571;46010;-68
2023/05/27 06:23:43;;;;;;;;;10.75;9.50;;;;;22.09;58.37;100779.91;146611;606;47016;-68
2023/05/27 06:26:55;;;;;;;;;10.75;10.75;;;;;22.19;58.28;100784.38;146619;628;46020;-68
2023/05/27 06:29:50;;;;;;;;;12.00;11.50;;;;;22.31;57.18;100780.91;146614;679;46015;-68
2023/05/27 06:32:54;;;;;;;;;11.75;10.75;;;;;22.41;57.65;100779.19;146618;647;46020;-68
2023/05/27 06:35:48;;;;;;;;;12.50;12.50;;;;;22.54;56.96;100780.97;146617;610;46012;-69
2023/05/27 06:38:41;;;;;;;;;11.75;10.25;;;;;22.64;58.17;100776.59;146618;579;46020;-68
2023/05/27 06:41:36;;;;;;;;;8.00;7.00;;;;;22.88;58.03;100783.72;146617;606;46016;-67
2023/05/27 06:44:28;;;;;;;;;11.00;10.67;;;;;23.12;56.75;100783.78;146620;577;47010;-68
2023/05/27 06:47:25;;;;;;;;;9.00;7.75;;;;;23.29;54.71;100781.12;146617;583;46030;-69
2023/05/27 06:50:26;;;;;;;;;10.50;9.00;;;;;23.46;55.15;100768.78;146617;695;46040;-68
2023/05/27 06:53:18;;;;;;;;;7.25;7.00;;;;;23.57;54.84;100774.06;146617;577;46014;-68
2023/05/27 06:56:42;;;;;;;;;8.33;8.33;;;;;23.65;54.37;100767.00;146622;615;46020;-69
2023/05/27 06:59:52;;;;;;;;;6.00;6.00;;;;;24.02;54.01;100764.28;146618;604;46016;-68
2023/05/27 07:02:57;;;;;;;;;7.33;7.33;;;;;24.37;53.68;100765.91;146620;593;46021;-68
2023/05/27 07:06:01;;;;;;;;;6.00;6.00;;;;;24.70;53.32;100764.00;146618;624;47012;-68
2023/05/27 07:09:07;;;;;;;;;6.33;6.33;;;;;25.02;51.27;100761.12;146622;593;46021;-69
2023/05/27 07:11:59;;;;;;;;;11.25;9.25;;;;;25.20;51.42;100761.00;146617;678;46016;-68
2023/05/27 07:14:54;;;;;;;;;8.33;8.00;;;;;25.32;51.76;100760.00;146619;572;47010;-69
2023/05/27 07:17:51;;;;;;;;;10.25;10.00;;;;;25.44;52.16;100759.03;146616;700;47012;-68
2023/05/27 07:20:53;;;;;;;;;9.33;8.67;;;;;25.53;51.41;100764.25;146620;570;46030;-69
2023/05/27 07:24:12;;;;;;;;;10.50;8.25;;;;;25.55;51.54;100762.47;146618;563;46016;-67
2023/05/27 07:27:08;;;;;;;;;9.67;8.67;;;;;25.51;52.00;100755.41;146622;571;46020;-68
2023/05/27 07:30:28;;;;;;;;;8.33;7.33;;;;;25.56;51.47;100754.47;146616;566;47017;-68
2023/05/27 07:33:36;;;;;;;;;;;;;;;;;;;;;
2023/05/27 07:36:54;;;;;;;;;7.67;6.00;;;;;25.60;51.34;100755.31;146616;639;46012;-68
2023/05/27 07:40:13;;;;;;;;;8.00;6.67;;;;;25.71;51.51;100755.22;146624;609;46010;-68
2023/05/27 07:43:27;;;;;;;;;6.00;6.00;;;;;26.00;51.75;100750.50;146619;565;46016;-67
2023/05/27 07:46:38;;;;;;;;;;;;;;;;;;;;;
2023/05/27 07:49:33;;;;;;;;;7.33;6.00;;;;;26.63;49.50;100762.13;146616;641;46018;-68
2023/05/27 07:52:39;;;;;;;;;9.33;7.67;;;;;26.63;49.52;100762.13;146621;618;47013;-68
2023/05/27 07:55:35;;;;;;;;;8.00;8.00;;;;;26.43;48.90;100759.72;146618;569;46012;-68
2023/05/27 07:58:46;;;;;;;;;;;;;;;;;;;;;
2023/05/27 08:01:48;;;;;;;;;7.67;7.67;;;;;25.85;50.57;100753.31;146620;564;46027;-67
2023/05/27 08:04:43;;;;;;;;;7.33;6.00;;;;;25.56;50.31;100756.25;146620;589;46020;-67
2023/05/27 08:07:44;;;;;;;;;9.33;8.00;;;;;25.28;50.99;100759.16;146618;617;46015;-67
2023/05/27 08:10:39;;;;;;;;;9.00;7.00;;;;;25.02;51.65;100762.00;146621;611;46010;-68
2023/05/27 08:13:44;;;;;;;;;8.67;7.33;;;;;24.81;51.45;100760.38;146618;563;46016;-68
2023/05/27 08:16:56;;;;;;;;;9.00;7.67;;;;;22.20;53.39;100349.50;146623;608;47010;-68
2023/05/27 08:19:54;;;;;;;;;7.00;7.00;;;;;24.39;54.42;100759.72;146618;571;47012;-68
2023/05/27 08:22:59;;;;;;;;;;;;;;;;;;;;;
2023/05/27 08:26:01;;;;;;;;;10.67;7.67;;;;;24.07;55.13;100745.72;146620;705;46012;-67
2023/05/27 08:29:01;;;;;;;;;9.33;7.00;;;;;23.91;55.66;100758.13;146622;581;46010;-68
2023/05/27 08:32:30;;;;;;;;;7.33;6.00;;;;;23.76;55.84;100748.47;146619;607;46012;-68
2023/05/27 08:35:46;;;;;;;;;7.33;7.33;;;;;23.64;55.64;100751.09;146622;563;46010;-69
2023/05/27 08:38:47;;;;;;;;;8.00;7.00;;;;;23.55;56.16;100751.12;146619;564;46914;-69
2023/05/27 08:41:54;;;;;;;;;6.00;6.00;;;;;23.49;55.87;100757.31;146621;690;48010;-68
2023/05/27 08:44:58;;;;;;;;;8.33;7.33;;;;;23.45;56.08;100748.47;146618;647;46013;-68
2023/05/27 08:48:13;;;;;;;;;8.67;8.00;;;;;23.49;55.92;100744.97;146619;600;46010;-68
2023/05/27 08:51:39;;;;;;;;;9.00;9.00;;;;;23.60;55.30;100752.00;146619;649;46918;-68
2023/05/27 08:54:43;;;;;;;;;11.00;8.67;;;;;23.59;54.92;100753.78;146624;588;46020;-69
2023/05/27 08:58:04;;;;;;;;;10.00;9.33;;;;;23.51;55.43;100756.41;146617;573;47012;-69
2023/05/27 09:01:14;;;;;;;;;10.33;7.67;;;;;23.35;56.27;100762.59;146621;594;46020;-68
2023/05/27 09:04:23;;;;;;;;;10.33;9.33;;;;;21.71;56.52;100498.16;146620;563;46918;-68
2023/05/27 09:07:18;;;;;;;;;11.33;9.00;;;;;23.21;56.54;100752.03;146622;663;46010;-68
2023/05/27 09:10:41;;;;;;;;;9.33;9.33;;;;;21.91;56.61;100558.94;146620;578;46016;-68
2023/05/27 09:13:38;;;;;;;;;6.00;6.00;;;;;23.35;56.77;100746.72;146622;634;46021;-68
2023/05/27 09:16:56;;;;;;;;;8.67;8.33;;;;;23.50;56.16;100738.78;146621;604;46017;-69
2023/05/27 09:19:54;;;;;;;;;14.00;12.33;;;;;23.67;55.68;100737.84;146614;677;47010;-68
2023/05/27 09:22:58;;;;;;;;;10.33;9.33;;;;;23.81;55.66;100720.22;146619;656;46028;-67
2023/05/27 09:26:00;;;;;;;;;8.33;8.00;;;;;23.93;55.18;100736.06;146623;569;46020;-67
2023/05/27 09:29:05;;;;;;;;;7.00;6.00;;;;;23.98;54.84;100728.09;146618;579;46916;-68
2023/05/27 09:32:07;;;;;;;;;7.33;7.33;;;;;24.08;54.73;100736.88;146622;581;46020;-68
2023/05/27 09:35:09;;;;;;;;;9.00;8.00;;;;;24.35;53.68;100734.09;146617;602;47012;-68
2023/05/27 09:38:33;;;;;;;;;9.00;8.00;;;;;22.40;54.26;100367.91;146622;574;46021;-67
2023/05/27 09:41:39;;;;;;;;;6.67;6.67;;;;;24.85;51.02;100740.03;146620;569;46016;-68
2023/05/27 09:44:42;;;;;;;;;8.00;8.00;;;;;24.89;50.91;100739.09;146621;616;46021;-69
2023/05/27 09:48:00;;;;;;;;;6.67;5.00;;;;;23.82;51.69;100567.53;146614;619;46016;-68
2023/05/27 09:50:59;;;;;;;;;11.00;10.67;;;;;24.69;52.32;100741.03;146622;593;47010;-69
2023/05/27 09:53:57;;;;;;;;;10.67;7.33;;;;;24.71;53.33;100748.09;146620;697;46016;-68
2023/05/27 09:56:51;;;;;;;;;12.33;10.00;;;;;24.69;52.62;100741.03;146620;629;46026;-69
2023/05/27 09:59:55;;;;;;;;;9.00;8.00;;;;;22.02;53.06;100293.16;146616;577;46016;-67
2023/05/27 10:02:59;;;;;;;;;10.00;10.00;;;;;24.48;52.86;100731.44;146621;592;46010;-67
2023/05/27 10:06:12;;;;;;;;;8.00;6.00;;;;;24.40;51.18;100727.03;146619;651;46012;-69
2023/05/27 10:09:18;;;;;;;;;5.33;5.33;;;;;24.30;52.56;100727.97;146623;565;46010;-67
2023/05/27 10:12:22;;;;;;;;;8.00;8.00;;;;;24.23;52.62;100712.97;146616;634;46016;-68
2023/05/27 10:15:41;;;;;;;;;9.00;8.67;;;;;21.87;53.91;100306.41;146622;642;46020;-68
2023/05/27 10:18:40;;;;;;;;;8.67;8.33;;;;;24.30;52.84;100720.03;146618;571;46016;-68
2023/05/27 10:21:59;;;;;;;;;7.00;6.33;;;;;24.24;51.93;100721.78;146621;582;46021;-68
2023/05/27 10:25:04;;;;;;;;;5.33;5.33;;;;;24.21;52.85;100722.72;146619;565;46016;-68
2023/05/27 10:28:08;;;;;;;;;8.67;8.00;;;;;24.30;51.48;100711.16;146623;581;46010;-68
2023/05/27 10:31:42;;;;;;;;;7.00;6.67;;;;;23.80;51.90;100569.28;146617;583;46014;-67
2023/05/27 10:35:15;;;;;;;;;6.33;6.33;;;;;22.67;50.82;100322.91;146621;581;47010;-67
2023/05/27 10:38:24;;;;;;;;;6.00;5.67;;;;;24.97;49.65;100708.09;146620;621;46012;-68
2023/05/27 10:41:32;;;;;;;;;7.00;6.00;;;;;24.95;49.59;100701.03;146623;633;46010;-67
2023/05/27 10:44:42;;;;;;;;;4.67;4.67;;;;;24.96;50.37;100703.69;146620;569;46013;-66
2023/05/27 10:47:50;;;;;;;;;6.00;6.00;;;;;24.77;49.49;100626.06;146622;649;46020;-67
2023/05/27 10:50:58;;;;;;;;;6.67;5.67;;;;;25.59;48.95;100692.50;146618;612;46916;-66
2023/05/27 10:54:44;;;;;;;;;5.33;4.33;;;;;23.73;49.42;100320.47;146623;595;46020;-68
2023/05/27 10:57:47;;;;;;;;;3.33;3.33;;;;;26.19;47.01;100687.34;146615;567;47017;-67
2023/05/27 11:00:52;;;;;;;;;6.67;6.67;;;;;26.44;47.91;100687.91;146625;613;46010;-67
2023/05/27 11:03:50;;;;;;;;;6.00;6.00;;;;;26.62;45.97;100686.78;146618;638;46014;-68
2023/05/27 11:07:10;;;;;;;;;5.33;5.33;;;;;24.61;46.61;100346.06;146620;681;46021;-67
2023/05/27 11:10:13;;;;;;;;;6.00;5.00;;;;;26.74;46.66;100691.03;146617;590;46016;-67
2023/05/27 11:13:07;;;;;;;;;6.00;4.00;;;;;26.66;44.28;100701.78;146623;618;46013;-68
2023/05/27 11:16:28;;;;;;;;;5.00;4.00;;;;;26.56;47.55;100680.69;146621;601;46012;-68
2023/05/27 11:19:32;;;;;;;;;5.67;5.00;;;;;26.52;44.94;100681.63;146619;595;47010;-67
2023/05/27 11:22:30;;;;;;;;;5.67;4.00;;;;;26.33;46.41;100686.31;146619;622;46012;-67
2023/05/27 11:25:36;;;;;;;;;7.33;5.33;;;;;26.09;45.52;100684.87;146624;580;46010;-67
2023/05/27 11:28:28;;;;;;;;;5.00;5.00;;;;;25.80;45.99;100686.94;146615;648;47016;-67
2023/05/27 11:31:40;;;;;;;;;7.00;4.33;;;;;25.58;47.44;100678.34;146623;607;46010;-68
2023/05/27 11:34:50;;;;;;;;;;;;;;;;;;;;;
2023/05/27 11:38:02;;;;;;;;;4.67;4.67;;;;;25.47;47.44;100679.38;146619;582;46020;-68
2023/05/27 11:41:17;;;;;;;;;5.00;5.00;;;;;25.67;46.40;100679.12;146618;609;46016;-68
2023/05/27 11:44:23;;;;;;;;;4.00;4.00;;;;;25.70;47.41;100689.72;146622;689;46021;-68
2023/05/27 11:47:34;;;;;;;;;5.00;5.00;;;;;23.47;49.22;100288.03;146618;591;46016;-68
2023/05/27 11:50:33;;;;;;;;;6.33;6.00;;;;;25.65;46.99;100663.22;146622;597;47010;-68
2023/05/27 11:53:44;;;;;;;;;3.00;3.00;;;;;25.63;48.04;100672.97;146618;597;47012;-68
2023/05/27 11:56:56;;;;;;;;;4.00;4.00;;;;;25.74;45.98;100659.59;146623;618;46010;-67
2023/05/27 12:00:19;;;;;;;;;6.00;5.00;;;;;25.92;47.31;100661.16;146617;613;46038;-68
2023/05/27 12:03:13;;;;;;;;;4.00;4.00;;;;;26.02;45.75;100652.19;146620;596;47010;-68
2023/05/27 12:06:08;;;;;;;;;5.00;5.00;;;;;26.08;45.99;100656.53;146619;625;46033;-68
2023/05/27 12:09:13;;;;;;;;;5.33;5.33;;;;;23.87;48.27;100248.00;146618;584;47010;-67
2023/05/27 12:12:24;;;;;;;;;6.00;6.00;;;;;26.17;46.45;100648.44;146616;654;46017;-68
2023/05/27 12:15:28;;;;;;;;;;;;;;;;;;;;;
2023/05/27 12:18:26;;;;;;;;;3.00;3.00;;;;;26.14;45.38;100653.81;146616;597;46035;-68
2023/05/27 12:21:29;;;;;;;;;4.25;4.00;;;;;26.09;46.32;100656.50;146622;599;46010;-68
2023/05/27 12:24:37;;;;;;;;;6.33;5.33;;;;;25.94;47.28;100646.09;146617;603;46016;-69
2023/05/27 12:27:55;;;;;;;;;;;;;;;;;;;;;
2023/05/27 12:31:02;;;;;;;;;4.33;3.00;;;;;25.99;47.34;100631.84;146615;577;46016;-68
2023/05/27 12:34:15;;;;;;;;;6.67;6.00;;;;;26.03;45.62;100630.88;146621;573;46011;-68
2023/05/27 12:37:16;;;;;;;;;8.00;4.00;;;;;26.09;47.35;100629.94;146619;626;46914;-68
2023/05/27 12:40:30;;;;;;;;;6.67;5.67;;;;;23.89;48.77;100225.88;146621;590;46046;-68
2023/05/27 12:43:46;;;;;;;;;7.00;7.00;;;;;26.23;47.39;100621.75;146618;631;46016;-69
2023/05/27 12:46:45;;;;;;;;;5.00;4.33;;;;;26.26;45.94;100606.66;146617;570;47012;-68
2023/05/27 12:49:54;;;;;;;;;5.00;5.00;;;;;26.33;46.30;100609.22;146615;591;46017;-68
2023/05/27 12:52:59;;;;;;;;;7.33;6.33;;;;;26.40;46.70;100594.94;146623;684;46010;-68
2023/05/27 12:56:06;;;;;;;;;5.33;5.33;;;;;24.33;47.70;100223.59;146617;570;46016;-68
2023/05/27 12:59:08;;;;;;;;;5.00;5.00;;;;;26.49;46.52;100586.84;146625;584;46031;-66
2023/05/27 13:02:07;;;;;;;;;7.00;5.00;;;;;26.54;46.28;100584.97;146618;587;46016;-68
2023/05/27 13:05:05;;;;;;;;;6.00;5.00;;;;;25.68;45.63;100407.41;146622;588;47010;-69
2023/05/27 13:08:18;;;;;;;;;4.33;3.00;;;;;26.68;46.74;100568.78;146620;597;46016;-68
2023/05/27 13:11:14;;;;;;;;;12.67;9.33;;;;;26.81;43.71;100565.00;146622;588;46020;-69
2023/05/27 13:14:13;;;;;;;;;4.67;4.33;;;;;26.84;43.79;100572.03;146610;624;47919;-69
2023/05/27 13:17:10;;;;;;;;;4.00;4.00;;;;;26.70;43.67;100572.31;146622;575;46020;-69
2023/05/27 13:20:22;;;;;;;;;3.33;3.33;;;;;26.56;43.84;100564.53;146617;645;47014;-69
2023/05/27 13:23:29;;;;;;;;;5.00;3.67;;;;;26.49;45.61;100565.56;146623;682;46010;-67
2023/05/27 13:26:22;;;;;;;;;5.67;5.67;;;;;26.49;44.23;100569.09;146619;623;46012;-68
2023/05/27 13:29:43;;;;;;;;;5.00;4.00;;;;;26.52;46.34;100567.31;146624;646;46010;-68
2023/05/27 13:32:49;;;;;;;;;3.00;3.00;;;;;26.51;46.78;100561.06;146618;619;46017;-67
2023/05/27 13:35:44;;;;;;;;;3.67;3.00;;;;;26.54;43.77;100555.72;146620;623;47010;-68
2023/05/27 13:38:41;;;;;;;;;3.00;3.00;;;;;26.61;43.73;100552.06;146617;589;46016;-68
2023/05/27 13:41:37;;;;;;;;;4.00;4.00;;;;;26.70;42.65;100538.59;146620;571;47010;-69
2023/05/27 13:44:44;;;;;;;;;4.33;4.33;;;;;26.82;43.84;100536.59;146617;590;46016;-68
2023/05/27 13:47:42;;;;;;;;;3.67;3.67;;;;;26.90;41.07;100537.34;146623;645;45020;-68
2023/05/27 13:50:41;;;;;;;;;2.00;2.00;;;;;26.93;40.79;100539.94;146618;614;46034;-68
2023/05/27 13:53:53;;;;;;;;;2.67;2.00;;;;;26.91;41.28;100545.28;146621;668;46012;-68
2023/05/27 13:57:02;;;;;;;;;2.00;2.00;;;;;26.85;40.38;100544.53;146619;594;47012;-68
2023/05/27 14:00:01;;;;;;;;;4.00;4.00;;;;;26.81;42.80;100538.37;146623;626;46020;-67
2023/05/27 14:03:10;;;;;;;;;3.00;2.00;;;;;24.45;44.37;100132.47;146618;643;46012;-67
2023/05/27 14:06:10;;;;;;;;;4.67;4.33;;;;;26.78;42.49;100534.91;146622;566;47010;-68
2023/05/27 14:09:03;;;;;;;;;3.00;3.00;;;;;26.79;43.11;100537.56;146617;571;46016;-68
2023/05/27 14:11:42;;;;;;;;;4.00;4.00;;;;;26.81;41.45;100535.72;146712;563;46022;-68
2023/05/27 14:14:39;;;;;;;;;2.00;2.00;;;;;26.84;41.17;100530.34;146625;631;46014;-68
2023/05/27 14:17:43;;;;;;;;;5.00;4.00;;;;;26.87;43.95;100543.59;146628;601;46020;-67
2023/05/27 14:20:40;;;;;;;;;5.33;3.33;;;;;26.84;45.71;100535.69;146624;708;47014;-68
2023/05/27 14:24:00;;;;;;;;;5.00;5.00;;;;;26.74;44.79;100531.44;146632;571;46032;-68
2023/05/27 14:26:57;;;;;;;;;4.33;4.33;;;;;25.50;44.93;100345.72;146624;610;46016;-68
2023/05/27 14:29:55;;;;;;;;;4.00;4.00;;;;;26.53;45.42;100538.00;146632;577;46010;-68
2023/05/27 14:32:51;;;;;;;;;5.67;5.00;;;;;26.46;44.87;100525.69;146628;639;46013;-70
2023/05/27 14:36:09;;;;;;;;;4.00;4.00;;;;;26.38;44.15;100533.78;146623;616;46011;-68
2023/05/27 14:39:05;;;;;;;;;2.33;2.33;;;;;26.30;43.45;100535.72;146626;686;46016;-68
2023/05/27 14:42:10;;;;;;;;;;;;;;;;;;;;;
2023/05/27 14:45:16;;;;;;;;;2.00;2.00;;;;;26.30;42.89;100537.50;146625;631;46012;-68
2023/05/27 14:48:08;;;;;;;;;2.33;2.33;;;;;26.33;42.92;100533.00;146632;575;45020;-68